createdAt,value
2022-08-30T00:01:05.719Z,93942.54
2022-08-30T00:06:12.869Z,93940.58
2022-08-30T00:11:27.631Z,93940.69
2022-08-30T00:16:35.466Z,93942.41
2022-08-30T00:21:42.416Z,93933.03
2022-08-30T00:26:49.380Z,93940.70
2022-08-30T00:31:56.581Z,93946.17
2022-08-30T00:37:03.633Z,93941.70
2022-08-30T00:42:12.593Z,93942.65
2022-08-30T00:47:19.756Z,93940.09
2022-08-30T00:52:27.181Z,93930.05
2022-08-30T00:57:36.166Z,93920.34
2022-08-30T01:02:43.677Z,93916.58
2022-08-30T01:07:50.927Z,93918.11
2022-08-30T01:12:58.251Z,93914.95
2022-08-30T01:18:06.883Z,93915.53
2022-08-30T01:23:18.755Z,93908.77
2022-08-30T01:28:28.361Z,93900.72
2022-08-30T01:33:35.206Z,93914.85
2022-08-30T01:38:51.842Z,93913.34
2022-08-30T01:44:02.660Z,93911.14
2022-08-30T01:49:13.454Z,93908.17
2022-08-30T01:54:20.308Z,93909.10
2022-08-30T01:59:28.922Z,93918.52
2022-08-30T02:04:36.643Z,93923.23
2022-08-30T02:09:43.766Z,93918.83
2022-08-30T02:14:52.148Z,93920.95
2022-08-30T02:19:59.083Z,93916.58
2022-08-30T02:25:09.804Z,93921.81
2022-08-30T02:30:17.148Z,93915.72
2022-08-30T02:35:23.868Z,93909.50
2022-08-30T02:40:30.716Z,93910.67
2022-08-30T02:45:37.431Z,93911.07
2022-08-30T02:50:46.766Z,93908.06
2022-08-30T02:55:53.526Z,93904.00
2022-08-30T03:01:00.479Z,93904.58
2022-08-30T03:06:07.503Z,93900.47
2022-08-30T03:11:14.324Z,93894.52
2022-08-30T03:16:22.710Z,93893.43
2022-08-30T03:21:29.473Z,93890.14
2022-08-30T03:26:36.409Z,93891.88
2022-08-30T03:31:52.898Z,93891.27
2022-08-30T03:36:53.297Z,93890.39
2022-08-30T03:42:00.131Z,93884.97
2022-08-30T03:47:08.724Z,93889.92
2022-08-30T03:52:15.518Z,93882.66
2022-08-30T03:57:24.627Z,93873.46
2022-08-30T04:02:31.495Z,93882.94
2022-08-30T04:07:38.138Z,93882.61
2022-08-30T04:12:49.447Z,93879.39
2022-08-30T04:17:54.832Z,93882.55
2022-08-30T04:23:02.644Z,93887.22
2022-08-30T04:28:09.944Z,93899.77
2022-08-30T04:33:18.201Z,93894.52
2022-08-30T04:38:29.859Z,93907.34
2022-08-30T04:43:33.436Z,93910.92
2022-08-30T04:48:40.924Z,93919.94
2022-08-30T04:53:47.717Z,93923.05
2022-08-30T04:58:57.478Z,93932.94
2022-08-30T05:04:04.644Z,93935.27
2022-08-30T05:09:11.451Z,93938.05
2022-08-30T05:14:18.509Z,93941.35
2022-08-30T05:19:25.328Z,93947.86
2022-08-30T05:24:32.349Z,93945.62
2022-08-30T05:29:39.058Z,93954.80
2022-08-30T05:34:45.844Z,93950.30
2022-08-30T05:39:52.578Z,93956.74
2022-08-30T05:44:59.326Z,93965.33
2022-08-30T05:50:08.179Z,93960.89
2022-08-30T05:55:15.836Z,93961.55
2022-08-30T06:00:23.853Z,93961.80
2022-08-30T06:05:30.599Z,93962.17
2022-08-30T06:10:38.976Z,93960.95
2022-08-30T06:15:45.918Z,93966.96
2022-08-30T06:20:52.619Z,93978.44
2022-08-30T06:26:07.820Z,93970.47
2022-08-30T06:31:17.571Z,93973.28
2022-08-30T06:36:26.640Z,93974.89
2022-08-30T06:41:36.701Z,93980.47
2022-08-30T06:46:43.381Z,93982.59
2022-08-30T06:51:50.151Z,93980.21
2022-08-30T06:56:59.068Z,93982.05
2022-08-30T07:02:07.193Z,93970.84
2022-08-30T07:07:14.322Z,93978.14
2022-08-30T07:12:21.097Z,93984.66
2022-08-30T07:17:45.472Z,93983.38
2022-08-30T07:22:52.187Z,93988.98
2022-08-30T07:27:59.239Z,93989.36
2022-08-30T07:33:06.520Z,93985.63
2022-08-30T07:38:16.167Z,93983.04
2022-08-30T07:43:23.029Z,93987.61
2022-08-30T07:48:30.322Z,93989.06
2022-08-30T07:53:37.232Z,93985.13
2022-08-30T07:58:44.222Z,93985.58
2022-08-30T08:03:52.762Z,93986.90
2022-08-30T08:09:01.283Z,93988.80
2022-08-30T08:14:13.190Z,93996.30
2022-08-30T08:19:21.251Z,93988.84
2022-08-30T08:24:32.593Z,93993.27
2022-08-30T08:29:40.852Z,93988.69
2022-08-30T08:34:48.081Z,93990.91
2022-08-30T08:39:56.273Z,93988.22
2022-08-30T08:45:11.398Z,93989.91
2022-08-30T08:50:22.812Z,93985.77
2022-08-30T08:55:30.995Z,93984.02
2022-08-30T09:00:41.312Z,93979.37
2022-08-30T09:05:53.754Z,93975.92
2022-08-30T09:11:04.643Z,93966.63
2022-08-30T09:16:22.540Z,93969.46
2022-08-30T09:21:26.162Z,93966.70
2022-08-30T09:26:37.413Z,93958.30
2022-08-30T09:32:22.565Z,93959.38
2022-08-30T09:37:03.303Z,93951.98
2022-08-30T09:42:27.552Z,93949.98
2022-08-30T09:47:34.803Z,93952.23
2022-08-30T09:53:08.824Z,93946.84
2022-08-30T09:58:41.163Z,93943.84
2022-08-30T10:04:17.731Z,93938.41
2022-08-30T10:09:31.952Z,93933.09
2022-08-30T10:15:08.533Z,93927.34
2022-08-30T10:20:36.093Z,93927.13
2022-08-30T10:26:12.082Z,93915.70
2022-08-30T10:31:23.844Z,93918.11
2022-08-30T10:36:38.732Z,93900.88
2022-08-30T10:41:58.673Z,93905.63
2022-08-30T10:47:25.212Z,93899.76
2022-08-30T10:52:54.044Z,93893.50
2022-08-30T10:58:10.651Z,93887.74
2022-08-30T11:03:40.782Z,93900.91
2022-08-30T11:09:00.913Z,93886.63
2022-08-30T11:14:11.531Z,93883.88
2022-08-30T11:19:32.135Z,93881.69
2022-08-30T11:25:02.800Z,93873.69
2022-08-30T11:30:33.482Z,93877.60
2022-08-30T11:35:52.759Z,93877.25
2022-08-30T11:41:09.769Z,93869.05
2022-08-30T11:46:34.122Z,93867.01
2022-08-30T11:52:02.964Z,93869.03
2022-08-30T11:57:15.802Z,93869.45
2022-08-30T12:02:53.452Z,93854.09
2022-08-30T12:08:06.721Z,93852.07
2022-08-30T12:13:42.110Z,93861.08
2022-08-30T12:19:00.104Z,93861.27
2022-08-30T12:24:21.471Z,93842.97
2022-08-30T12:29:32.294Z,93830.92
2022-08-30T12:34:53.251Z,93833.53
2022-08-30T12:40:10.969Z,93818.97
2022-08-30T12:45:22.993Z,93820.98
2022-08-30T12:50:37.603Z,93826.24
2022-08-30T12:56:11.302Z,93822.16
2022-08-30T13:01:36.324Z,93813.69
2022-08-30T13:06:58.122Z,93808.28
2022-08-30T13:12:12.382Z,93802.73
2022-08-30T13:17:30.589Z,93798.52
2022-08-30T13:22:41.749Z,93792.08
2022-08-30T13:27:49.156Z,93788.11
2022-08-30T13:32:56.097Z,93782.45
2022-08-30T13:38:04.660Z,93784.17
2022-08-30T13:43:11.477Z,93786.55
2022-08-30T13:48:19.042Z,93781.55
2022-08-30T13:58:36.311Z,93779.73
2022-08-30T14:08:56.200Z,93770.96
2022-08-30T14:14:22.312Z,93764.77
2022-08-30T14:19:09.832Z,93767.41
2022-08-30T14:24:21.592Z,93765.38
2022-08-30T14:29:30.381Z,93761.78
2022-08-30T14:34:42.932Z,93754.75
2022-08-30T14:39:50.810Z,93753.33
2022-08-30T14:44:58.481Z,93750.87
2022-08-30T14:50:06.931Z,93750.34
2022-08-30T14:55:14.996Z,93749.48
2022-08-30T15:00:23.284Z,93750.50
2022-08-30T15:05:32.605Z,93750.13
2022-08-30T15:10:41.459Z,93748.03
2022-08-30T15:15:50.554Z,93743.14
2022-08-30T15:20:57.611Z,93746.34
2022-08-30T15:26:04.467Z,93753.34
2022-08-30T15:31:11.228Z,93752.16
2022-08-30T15:36:18.423Z,93743.46
2022-08-30T15:41:25.849Z,93739.62
2022-08-30T15:46:38.087Z,93733.95
2022-08-30T15:51:47.857Z,93734.27
2022-08-30T15:56:56.366Z,93742.06
2022-08-30T16:02:03.674Z,93738.06
2022-08-30T16:07:10.722Z,93736.17
2022-08-30T16:12:23.614Z,93736.22
2022-08-30T16:17:26.326Z,93729.02
2022-08-30T16:22:33.253Z,93728.64
2022-08-30T16:27:41.581Z,93726.09
2022-08-30T16:32:49.720Z,93725.48
2022-08-30T16:37:56.491Z,93727.89
2022-08-30T16:43:03.972Z,93722.66
2022-08-30T16:48:14.030Z,93719.39
2022-08-30T16:53:21.582Z,93726.68
2022-08-30T16:58:28.963Z,93724.84
2022-08-30T17:03:36.053Z,93725.80
2022-08-30T17:08:43.313Z,93718.28
2022-08-30T17:13:50.964Z,93722.59
2022-08-30T17:19:01.314Z,93721.21
2022-08-30T17:24:08.458Z,93726.05
2022-08-30T17:29:16.462Z,93728.87
2022-08-30T17:34:26.456Z,93745.16
2022-08-30T17:39:33.803Z,93752.02
2022-08-30T17:44:42.093Z,93754.80
2022-08-30T17:49:49.386Z,93761.33
2022-08-30T17:54:57.021Z,93769.92
2022-08-30T18:00:07.306Z,93767.56
2022-08-30T18:05:14.996Z,93778.00
2022-08-30T18:10:28.560Z,93782.36
2022-08-30T18:15:30.923Z,93795.66
2022-08-30T18:20:37.623Z,93792.40
2022-08-30T18:25:44.588Z,93800.27
2022-08-30T18:30:51.606Z,93814.84
2022-08-30T18:35:59.584Z,93817.77
2022-08-30T18:41:11.059Z,93829.38
2022-08-30T18:46:20.335Z,93833.67
2022-08-30T18:51:27.376Z,93837.79
2022-08-30T18:56:35.853Z,93838.95
2022-08-30T19:01:44.305Z,93839.05
2022-08-30T19:06:51.368Z,93836.98
2022-08-30T19:11:58.343Z,93836.34
2022-08-30T19:17:07.052Z,93838.56
2022-08-30T19:22:14.411Z,93836.66
2022-08-30T19:27:38.489Z,93851.11
2022-08-30T19:32:31.962Z,93845.22
2022-08-30T19:37:40.138Z,93842.86
2022-08-30T19:42:47.916Z,93848.16
2022-08-30T19:47:55.598Z,93846.48
2022-08-30T19:53:02.797Z,93849.48
2022-08-30T19:58:10.098Z,93859.40
2022-08-30T20:03:17.334Z,93863.77
2022-08-30T20:08:24.745Z,93869.97
2022-08-30T20:13:33.714Z,93872.45
2022-08-30T20:18:43.276Z,93876.26
2022-08-30T20:23:50.250Z,93869.87
2022-08-30T20:28:58.810Z,93871.41
2022-08-30T20:34:07.218Z,93873.73
2022-08-30T20:39:17.407Z,93870.08
2022-08-30T20:44:23.058Z,93864.88
2022-08-30T20:49:30.355Z,93850.42
2022-08-30T20:54:38.655Z,93841.95
2022-08-30T20:59:46.054Z,93842.25
2022-08-30T21:04:53.068Z,93840.11
2022-08-30T21:10:00.309Z,93846.22
2022-08-30T21:15:33.831Z,93853.45
2022-08-30T21:20:17.358Z,93847.23
2022-08-30T21:25:24.973Z,93851.88
2022-08-30T21:30:32.007Z,93846.72
2022-08-30T21:35:57.505Z,93854.34
2022-08-30T21:41:04.224Z,93846.91
2022-08-30T21:46:11.938Z,93844.15
2022-08-30T21:51:19.532Z,93840.30
2022-08-30T21:56:27.298Z,93852.79
2022-08-30T22:01:37.712Z,93850.16
2022-08-30T22:06:50.636Z,93844.72
2022-08-30T22:11:58.261Z,93840.39
2022-08-30T22:17:05.363Z,93843.08
2022-08-30T22:22:13.711Z,93846.82
2022-08-30T22:27:20.646Z,93853.53
2022-08-30T22:32:27.682Z,93843.70
2022-08-30T22:37:34.823Z,93850.25
2022-08-30T22:42:41.697Z,93844.16
2022-08-30T22:47:50.430Z,93837.34
2022-08-30T22:52:57.402Z,93834.84
2022-08-30T22:58:04.282Z,93827.09
2022-08-30T23:03:11.315Z,93831.22
2022-08-30T23:08:19.143Z,93821.98
2022-08-30T23:13:26.482Z,93817.77
2022-08-30T23:18:39.372Z,93812.25
2022-08-30T23:24:03.308Z,93807.43
2022-08-30T23:29:27.859Z,93818.70
2022-08-30T23:34:53.137Z,93808.62
2022-08-30T23:40:17.462Z,93814.42
2022-08-30T23:45:41.838Z,93806.11
2022-08-30T23:51:06.571Z,93818.04
2022-08-30T23:56:32.028Z,93814.15
